sensor_id;sensor_type;location;lat;lon;timestamp;temperature;humidity
42965;DHT22;28604;51.204;22.552;2023-02-14T00:01:55;4.70;90.80
42965;DHT22;28604;51.204;22.552;2023-02-14T00:04:21;4.70;90.60
42965;DHT22;28604;51.204;22.552;2023-02-14T00:06:47;4.70;90.50
42965;DHT22;28604;51.204;22.552;2023-02-14T00:09:15;4.70;90.60
42965;DHT22;28604;51.204;22.552;2023-02-14T00:11:42;4.70;90.60
42965;DHT22;28604;51.204;22.552;2023-02-14T00:14:08;4.70;90.70
42965;DHT22;28604;51.204;22.552;2023-02-14T00:16:53;4.70;90.60
42965;DHT22;28604;51.204;22.552;2023-02-14T00:19:19;4.80;90.70
42965;DHT22;28604;51.204;22.552;2023-02-14T00:21:46;4.70;90.50
42965;DHT22;28604;51.204;22.552;2023-02-14T00:24:19;4.70;90.50
42965;DHT22;28604;51.204;22.552;2023-02-14T00:26:46;4.80;90.70
42965;DHT22;28604;51.204;22.552;2023-02-14T00:29:15;4.70;90.50
42965;DHT22;28604;51.204;22.552;2023-02-14T00:31:42;4.70;90.80
42965;DHT22;28604;51.204;22.552;2023-02-14T00:34:09;4.70;90.50
42965;DHT22;28604;51.204;22.552;2023-02-14T00:36:36;4.70;90.60
42965;DHT22;28604;51.204;22.552;2023-02-14T00:39:04;4.70;90.80
42965;DHT22;28604;51.204;22.552;2023-02-14T00:41:30;4.80;90.70
42965;DHT22;28604;51.204;22.552;2023-02-14T00:43:56;4.70;90.60
42965;DHT22;28604;51.204;22.552;2023-02-14T00:46:23;4.80;90.40
42965;DHT22;28604;51.204;22.552;2023-02-14T00:48:50;4.80;90.50
42965;DHT22;28604;51.204;22.552;2023-02-14T00:51:16;4.80;90.30
42965;DHT22;28604;51.204;22.552;2023-02-14T00:56:12;4.80;90.40
42965;DHT22;28604;51.204;22.552;2023-02-14T00:58:38;4.80;90.50
42965;DHT22;28604;51.204;22.552;2023-02-14T01:01:05;4.80;90.40
42965;DHT22;28604;51.204;22.552;2023-02-14T01:03:30;4.80;90.40
42965;DHT22;28604;51.204;22.552;2023-02-14T01:05:57;4.80;90.40
42965;DHT22;28604;51.204;22.552;2023-02-14T01:08:23;4.80;90.50
42965;DHT22;28604;51.204;22.552;2023-02-14T01:10:49;4.80;90.30
42965;DHT22;28604;51.204;22.552;2023-02-14T01:13:15;4.80;90.20
42965;DHT22;28604;51.204;22.552;2023-02-14T01:15:47;4.90;90.30
42965;DHT22;28604;51.204;22.552;2023-02-14T01:18:14;4.90;90.20
42965;DHT22;28604;51.204;22.552;2023-02-14T01:20:41;4.90;90.20
42965;DHT22;28604;51.204;22.552;2023-02-14T01:23:07;4.90;90.30
42965;DHT22;28604;51.204;22.552;2023-02-14T01:25:35;4.90;90.40
42965;DHT22;28604;51.204;22.552;2023-02-14T01:28:01;4.80;90.20
42965;DHT22;28604;51.204;22.552;2023-02-14T01:30:27;4.80;90.20
42965;DHT22;28604;51.204;22.552;2023-02-14T01:32:53;4.80;90.10
42965;DHT22;28604;51.204;22.552;2023-02-14T01:35:20;4.80;90.40
42965;DHT22;28604;51.204;22.552;2023-02-14T01:37:45;4.90;90.20
42965;DHT22;28604;51.204;22.552;2023-02-14T01:40:13;4.90;90.10
42965;DHT22;28604;51.204;22.552;2023-02-14T01:42:42;4.90;90.20
42965;DHT22;28604;51.204;22.552;2023-02-14T01:45:24;4.90;90.10
42965;DHT22;28604;51.204;22.552;2023-02-14T01:47:53;4.90;90.20
42965;DHT22;28604;51.204;22.552;2023-02-14T01:50:34;4.90;90.10
42965;DHT22;28604;51.204;22.552;2023-02-14T01:53:13;4.90;90.10
42965;DHT22;28604;51.204;22.552;2023-02-14T01:58:27;4.90;90.20
42965;DHT22;28604;51.204;22.552;2023-02-14T02:00:54;4.90;90.20
42965;DHT22;28604;51.204;22.552;2023-02-14T02:03:26;4.90;90.20
42965;DHT22;28604;51.204;22.552;2023-02-14T02:06:14;4.90;90.20
42965;DHT22;28604;51.204;22.552;2023-02-14T02:09:11;4.90;90.20
42965;DHT22;28604;51.204;22.552;2023-02-14T02:11:34;4.90;90.10
42965;DHT22;28604;51.204;22.552;2023-02-14T02:14:01;4.90;90.20
42965;DHT22;28604;51.204;22.552;2023-02-14T02:22:07;4.90;90.10
42965;DHT22;28604;51.204;22.552;2023-02-14T02:24:58;4.90;90.10
42965;DHT22;28604;51.204;22.552;2023-02-14T02:27:33;4.90;90.00
42965;DHT22;28604;51.204;22.552;2023-02-14T02:36:06;5.00;89.80
42965;DHT22;28604;51.204;22.552;2023-02-14T02:38:56;4.90;89.90
42965;DHT22;28604;51.204;22.552;2023-02-14T02:42:03;4.90;90.00
42965;DHT22;28604;51.204;22.552;2023-02-14T02:53:14;5.00;90.00
42965;DHT22;28604;51.204;22.552;2023-02-14T02:56:02;5.00;90.00
42965;DHT22;28604;51.204;22.552;2023-02-14T03:04:28;4.90;90.00
42965;DHT22;28604;51.204;22.552;2023-02-14T03:07:15;5.00;90.00
42965;DHT22;28604;51.204;22.552;2023-02-14T03:10:21;4.90;89.90
42965;DHT22;28604;51.204;22.552;2023-02-14T03:18:27;5.00;90.00
42965;DHT22;28604;51.204;22.552;2023-02-14T03:21:23;5.00;90.00
42965;DHT22;28604;51.204;22.552;2023-02-14T03:23:53;5.00;90.00
42965;DHT22;28604;51.204;22.552;2023-02-14T03:27:04;5.00;89.90
42965;DHT22;28604;51.204;22.552;2023-02-14T03:29:48;5.00;89.80
42965;DHT22;28604;51.204;22.552;2023-02-14T03:32:41;5.00;89.80
42965;DHT22;28604;51.204;22.552;2023-02-14T03:38:07;5.00;89.90
42965;DHT22;28604;51.204;22.552;2023-02-14T03:40:44;5.00;89.60
42965;DHT22;28604;51.204;22.552;2023-02-14T03:43:44;5.00;89.90
42965;DHT22;28604;51.204;22.552;2023-02-14T03:46:17;5.00;89.70
42965;DHT22;28604;51.204;22.552;2023-02-14T03:48:44;5.00;89.60
42965;DHT22;28604;51.204;22.552;2023-02-14T03:51:13;5.00;89.50
42965;DHT22;28604;51.204;22.552;2023-02-14T03:53:45;5.00;89.80
42965;DHT22;28604;51.204;22.552;2023-02-14T03:56:34;5.00;89.60
42965;DHT22;28604;51.204;22.552;2023-02-14T03:59:16;5.00;89.50
42965;DHT22;28604;51.204;22.552;2023-02-14T04:04:37;5.00;89.30
42965;DHT22;28604;51.204;22.552;2023-02-14T04:07:08;5.00;89.60
42965;DHT22;28604;51.204;22.552;2023-02-14T04:09:34;5.00;89.50
42965;DHT22;28604;51.204;22.552;2023-02-14T04:12:00;5.00;90.00
42965;DHT22;28604;51.204;22.552;2023-02-14T04:14:26;5.00;89.80
42965;DHT22;28604;51.204;22.552;2023-02-14T04:16:54;5.00;89.70
42965;DHT22;28604;51.204;22.552;2023-02-14T04:19:38;5.00;89.50
42965;DHT22;28604;51.204;22.552;2023-02-14T04:22:04;5.00;89.50
42965;DHT22;28604;51.204;22.552;2023-02-14T04:24:30;5.00;89.40
42965;DHT22;28604;51.204;22.552;2023-02-14T04:26:56;5.00;89.50
42965;DHT22;28604;51.204;22.552;2023-02-14T04:29:48;5.00;89.40
42965;DHT22;28604;51.204;22.552;2023-02-14T04:32:17;5.00;89.40
42965;DHT22;28604;51.204;22.552;2023-02-14T04:34:43;5.00;89.40
42965;DHT22;28604;51.204;22.552;2023-02-14T04:37:10;5.00;89.40
42965;DHT22;28604;51.204;22.552;2023-02-14T04:39:36;5.00;89.40
42965;DHT22;28604;51.204;22.552;2023-02-14T04:42:03;5.00;89.30
42965;DHT22;28604;51.204;22.552;2023-02-14T04:44:29;5.00;89.30
42965;DHT22;28604;51.204;22.552;2023-02-14T04:46:55;5.00;89.50
42965;DHT22;28604;51.204;22.552;2023-02-14T04:49:21;5.00;89.40
42965;DHT22;28604;51.204;22.552;2023-02-14T04:51:47;5.00;89.20
42965;DHT22;28604;51.204;22.552;2023-02-14T04:54:13;5.00;89.20
42965;DHT22;28604;51.204;22.552;2023-02-14T04:56:39;5.00;89.30
42965;DHT22;28604;51.204;22.552;2023-02-14T04:59:05;5.00;89.10
42965;DHT22;28604;51.204;22.552;2023-02-14T05:01:31;5.00;89.30
42965;DHT22;28604;51.204;22.552;2023-02-14T05:03:57;5.00;89.30
42965;DHT22;28604;51.204;22.552;2023-02-14T05:06:23;5.00;89.20
42965;DHT22;28604;51.204;22.552;2023-02-14T05:08:49;5.00;89.20
42965;DHT22;28604;51.204;22.552;2023-02-14T05:11:15;5.00;89.30
42965;DHT22;28604;51.204;22.552;2023-02-14T05:13:40;4.90;89.50
42965;DHT22;28604;51.204;22.552;2023-02-14T05:16:06;5.00;89.40
42965;DHT22;28604;51.204;22.552;2023-02-14T05:18:32;5.00;89.40
42965;DHT22;28604;51.204;22.552;2023-02-14T05:20:58;5.00;89.60
42965;DHT22;28604;51.204;22.552;2023-02-14T05:23:24;5.00;89.50
42965;DHT22;28604;51.204;22.552;2023-02-14T05:25:53;5.00;89.60
42965;DHT22;28604;51.204;22.552;2023-02-14T05:28:19;4.90;89.30
42965;DHT22;28604;51.204;22.552;2023-02-14T05:30:45;5.00;89.60
42965;DHT22;28604;51.204;22.552;2023-02-14T05:33:11;4.90;89.90
42965;DHT22;28604;51.204;22.552;2023-02-14T05:35:38;4.90;89.70
42965;DHT22;28604;51.204;22.552;2023-02-14T05:38:04;4.90;89.90
42965;DHT22;28604;51.204;22.552;2023-02-14T05:40:30;4.90;90.00
42965;DHT22;28604;51.204;22.552;2023-02-14T05:42:55;4.90;90.10
42965;DHT22;28604;51.204;22.552;2023-02-14T05:45:22;4.80;89.90
42965;DHT22;28604;51.204;22.552;2023-02-14T05:47:48;4.90;90.00
42965;DHT22;28604;51.204;22.552;2023-02-14T05:50:15;4.80;89.70
42965;DHT22;28604;51.204;22.552;2023-02-14T05:52:41;4.80;89.60
42965;DHT22;28604;51.204;22.552;2023-02-14T05:55:08;4.80;89.90
42965;DHT22;28604;51.204;22.552;2023-02-14T05:57:34;4.80;89.80
42965;DHT22;28604;51.204;22.552;2023-02-14T06:00:00;4.80;90.00
42965;DHT22;28604;51.204;22.552;2023-02-14T06:02:27;4.80;90.00
42965;DHT22;28604;51.204;22.552;2023-02-14T06:04:53;4.70;90.00
42965;DHT22;28604;51.204;22.552;2023-02-14T06:07:18;4.70;90.00
42965;DHT22;28604;51.204;22.552;2023-02-14T06:09:45;4.70;90.10
42965;DHT22;28604;51.204;22.552;2023-02-14T06:12:10;4.70;90.00
42965;DHT22;28604;51.204;22.552;2023-02-14T06:14:36;4.70;90.00
42965;DHT22;28604;51.204;22.552;2023-02-14T06:17:02;4.70;90.00
42965;DHT22;28604;51.204;22.552;2023-02-14T06:19:28;4.80;90.20
42965;DHT22;28604;51.204;22.552;2023-02-14T06:21:54;4.70;90.10
42965;DHT22;28604;51.204;22.552;2023-02-14T06:24:20;4.80;90.10
42965;DHT22;28604;51.204;22.552;2023-02-14T06:26:46;4.80;90.00
42965;DHT22;28604;51.204;22.552;2023-02-14T06:29:12;4.80;90.10
42965;DHT22;28604;51.204;22.552;2023-02-14T06:31:40;4.80;90.20
42965;DHT22;28604;51.204;22.552;2023-02-14T06:34:06;4.80;90.10
42965;DHT22;28604;51.204;22.552;2023-02-14T06:36:32;4.80;90.20
42965;DHT22;28604;51.204;22.552;2023-02-14T06:38:58;4.90;90.30
42965;DHT22;28604;51.204;22.552;2023-02-14T06:41:24;4.80;90.10
42965;DHT22;28604;51.204;22.552;2023-02-14T06:43:50;4.90;90.20
42965;DHT22;28604;51.204;22.552;2023-02-14T06:46:16;4.90;90.10
42965;DHT22;28604;51.204;22.552;2023-02-14T06:48:43;4.90;90.10
42965;DHT22;28604;51.204;22.552;2023-02-14T06:51:09;4.90;90.10
42965;DHT22;28604;51.204;22.552;2023-02-14T06:53:36;4.90;90.30
42965;DHT22;28604;51.204;22.552;2023-02-14T06:56:02;4.90;90.10
42965;DHT22;28604;51.204;22.552;2023-02-14T06:58:28;4.90;90.10
42965;DHT22;28604;51.204;22.552;2023-02-14T07:00:55;5.00;90.10
42965;DHT22;28604;51.204;22.552;2023-02-14T07:03:22;5.00;90.00
42965;DHT22;28604;51.204;22.552;2023-02-14T07:05:48;5.00;90.00
42965;DHT22;28604;51.204;22.552;2023-02-14T07:08:14;5.00;90.00
42965;DHT22;28604;51.204;22.552;2023-02-14T07:10:40;5.00;90.00
42965;DHT22;28604;51.204;22.552;2023-02-14T07:13:06;5.00;90.10
42965;DHT22;28604;51.204;22.552;2023-02-14T07:15:32;5.00;90.20
42965;DHT22;28604;51.204;22.552;2023-02-14T07:17:58;5.10;90.00
42965;DHT22;28604;51.204;22.552;2023-02-14T07:20:24;5.10;90.10
42965;DHT22;28604;51.204;22.552;2023-02-14T07:22:50;5.10;90.20
42965;DHT22;28604;51.204;22.552;2023-02-14T07:25:16;5.10;90.10
42965;DHT22;28604;51.204;22.552;2023-02-14T07:27:43;5.10;90.20
42965;DHT22;28604;51.204;22.552;2023-02-14T07:30:10;5.10;90.10
42965;DHT22;28604;51.204;22.552;2023-02-14T07:32:37;5.10;90.00
42965;DHT22;28604;51.204;22.552;2023-02-14T07:35:04;5.20;90.00
42965;DHT22;28604;51.204;22.552;2023-02-14T07:37:34;5.20;90.00
42965;DHT22;28604;51.204;22.552;2023-02-14T07:40:00;5.30;90.00
42965;DHT22;28604;51.204;22.552;2023-02-14T07:42:27;5.40;90.00
42965;DHT22;28604;51.204;22.552;2023-02-14T07:44:53;5.40;89.50
42965;DHT22;28604;51.204;22.552;2023-02-14T07:47:19;5.50;89.10
42965;DHT22;28604;51.204;22.552;2023-02-14T07:49:45;5.50;89.40
42965;DHT22;28604;51.204;22.552;2023-02-14T07:52:11;5.50;89.50
42965;DHT22;28604;51.204;22.552;2023-02-14T07:54:36;5.60;89.40
42965;DHT22;28604;51.204;22.552;2023-02-14T07:57:04;5.60;89.20
42965;DHT22;28604;51.204;22.552;2023-02-14T07:59:30;5.60;89.20
42965;DHT22;28604;51.204;22.552;2023-02-14T08:01:56;5.60;89.30
42965;DHT22;28604;51.204;22.552;2023-02-14T08:04:28;5.70;89.40
42965;DHT22;28604;51.204;22.552;2023-02-14T08:06:54;5.70;89.30
42965;DHT22;28604;51.204;22.552;2023-02-14T08:09:20;5.60;89.00
42965;DHT22;28604;51.204;22.552;2023-02-14T08:11:54;5.70;88.90
42965;DHT22;28604;51.204;22.552;2023-02-14T08:14:40;5.70;88.90
42965;DHT22;28604;51.204;22.552;2023-02-14T08:17:06;5.70;88.90
42965;DHT22;28604;51.204;22.552;2023-02-14T08:19:35;5.90;88.90
42965;DHT22;28604;51.204;22.552;2023-02-14T08:22:03;5.90;88.70
42965;DHT22;28604;51.204;22.552;2023-02-14T08:24:29;5.90;88.80
42965;DHT22;28604;51.204;22.552;2023-02-14T08:26:55;6.00;88.90
42965;DHT22;28604;51.204;22.552;2023-02-14T08:29:21;6.10;89.20
42965;DHT22;28604;51.204;22.552;2023-02-14T08:31:48;6.10;88.60
42965;DHT22;28604;51.204;22.552;2023-02-14T08:34:15;6.20;88.50
42965;DHT22;28604;51.204;22.552;2023-02-14T08:36:41;6.30;88.40
42965;DHT22;28604;51.204;22.552;2023-02-14T08:39:07;6.30;87.60
42965;DHT22;28604;51.204;22.552;2023-02-14T08:41:34;6.30;87.40
42965;DHT22;28604;51.204;22.552;2023-02-14T08:44:00;6.20;87.60
42965;DHT22;28604;51.204;22.552;2023-02-14T08:46:27;6.30;87.60
42965;DHT22;28604;51.204;22.552;2023-02-14T08:48:53;6.30;88.10
42965;DHT22;28604;51.204;22.552;2023-02-14T08:51:20;6.30;87.50
42965;DHT22;28604;51.204;22.552;2023-02-14T08:53:50;6.30;87.20
42965;DHT22;28604;51.204;22.552;2023-02-14T08:56:17;6.20;87.30
42965;DHT22;28604;51.204;22.552;2023-02-14T08:58:44;6.30;87.50
42965;DHT22;28604;51.204;22.552;2023-02-14T09:01:16;6.30;86.80
42965;DHT22;28604;51.204;22.552;2023-02-14T09:03:42;6.30;87.40
42965;DHT22;28604;51.204;22.552;2023-02-14T09:06:12;6.30;87.20
42965;DHT22;28604;51.204;22.552;2023-02-14T09:08:39;6.30;87.60
42965;DHT22;28604;51.204;22.552;2023-02-14T09:11:13;6.40;87.60
42965;DHT22;28604;51.204;22.552;2023-02-14T09:13:41;6.40;87.50
42965;DHT22;28604;51.204;22.552;2023-02-14T09:16:09;6.40;87.50
42965;DHT22;28604;51.204;22.552;2023-02-14T09:18:35;6.50;87.20
42965;DHT22;28604;51.204;22.552;2023-02-14T09:21:06;6.50;87.40
42965;DHT22;28604;51.204;22.552;2023-02-14T09:23:32;6.50;87.70
42965;DHT22;28604;51.204;22.552;2023-02-14T09:26:03;6.60;86.80
42965;DHT22;28604;51.204;22.552;2023-02-14T09:28:29;6.60;87.00
42965;DHT22;28604;51.204;22.552;2023-02-14T09:30:56;6.70;87.30
42965;DHT22;28604;51.204;22.552;2023-02-14T09:33:26;6.70;86.80
42965;DHT22;28604;51.204;22.552;2023-02-14T09:35:52;6.60;86.30
42965;DHT22;28604;51.204;22.552;2023-02-14T09:38:17;6.70;86.90
42965;DHT22;28604;51.204;22.552;2023-02-14T09:40:45;6.70;86.80
42965;DHT22;28604;51.204;22.552;2023-02-14T09:43:21;6.70;86.80
42965;DHT22;28604;51.204;22.552;2023-02-14T09:45:53;6.70;87.00
42965;DHT22;28604;51.204;22.552;2023-02-14T09:48:24;6.70;86.60
42965;DHT22;28604;51.204;22.552;2023-02-14T09:50:54;6.70;86.60
42965;DHT22;28604;51.204;22.552;2023-02-14T09:53:35;6.70;86.70
42965;DHT22;28604;51.204;22.552;2023-02-14T10:01:42;6.90;86.30
42965;DHT22;28604;51.204;22.552;2023-02-14T10:04:35;6.90;86.60
42965;DHT22;28604;51.204;22.552;2023-02-14T10:07:18;6.90;86.30
42965;DHT22;28604;51.204;22.552;2023-02-14T10:12:39;6.90;86.20
42965;DHT22;28604;51.204;22.552;2023-02-14T10:15:18;7.00;85.80
42965;DHT22;28604;51.204;22.552;2023-02-14T10:17:56;7.10;86.00
42965;DHT22;28604;51.204;22.552;2023-02-14T10:20:44;7.00;85.40
42965;DHT22;28604;51.204;22.552;2023-02-14T10:23:38;7.10;85.50
42965;DHT22;28604;51.204;22.552;2023-02-14T10:26:16;7.10;85.60
42965;DHT22;28604;51.204;22.552;2023-02-14T10:28:48;7.10;85.70
42965;DHT22;28604;51.204;22.552;2023-02-14T10:32:19;7.10;85.50
42965;DHT22;28604;51.204;22.552;2023-02-14T10:43:10;7.10;85.70
42965;DHT22;28604;51.204;22.552;2023-02-14T10:45:40;7.20;85.80
42965;DHT22;28604;51.204;22.552;2023-02-14T10:48:32;7.20;85.80
42965;DHT22;28604;51.204;22.552;2023-02-14T10:51:25;7.20;85.90
42965;DHT22;28604;51.204;22.552;2023-02-14T10:57:20;7.30;85.10
42965;DHT22;28604;51.204;22.552;2023-02-14T11:00:24;7.20;85.30
42965;DHT22;28604;51.204;22.552;2023-02-14T11:09:52;7.20;85.50
42965;DHT22;28604;51.204;22.552;2023-02-14T11:15:25;7.20;85.30
42965;DHT22;28604;51.204;22.552;2023-02-14T11:18:22;7.20;85.40
42965;DHT22;28604;51.204;22.552;2023-02-14T11:21:11;7.20;85.50
42965;DHT22;28604;51.204;22.552;2023-02-14T11:23:42;7.30;85.60
42965;DHT22;28604;51.204;22.552;2023-02-14T11:26:20;7.20;85.40
42965;DHT22;28604;51.204;22.552;2023-02-14T11:29:11;7.20;85.50
42965;DHT22;28604;51.204;22.552;2023-02-14T11:31:38;7.30;85.00
42965;DHT22;28604;51.204;22.552;2023-02-14T11:37:02;7.10;86.10
42965;DHT22;28604;51.204;22.552;2023-02-14T11:39:31;7.20;85.70
42965;DHT22;28604;51.204;22.552;2023-02-14T11:42:04;7.10;85.40
42965;DHT22;28604;51.204;22.552;2023-02-14T11:44:32;7.10;85.30
42965;DHT22;28604;51.204;22.552;2023-02-14T11:47:25;7.10;85.40
42965;DHT22;28604;51.204;22.552;2023-02-14T11:50:00;7.20;85.40
42965;DHT22;28604;51.204;22.552;2023-02-14T11:52:27;7.10;85.50
42965;DHT22;28604;51.204;22.552;2023-02-14T11:54:55;7.10;85.70
42965;DHT22;28604;51.204;22.552;2023-02-14T11:57:37;7.10;85.60
42965;DHT22;28604;51.204;22.552;2023-02-14T12:00:17;7.10;85.80
42965;DHT22;28604;51.204;22.552;2023-02-14T12:02:46;7.10;85.40
42965;DHT22;28604;51.204;22.552;2023-02-14T12:05:18;7.10;85.80
42965;DHT22;28604;51.204;22.552;2023-02-14T12:07:55;7.10;85.90
42965;DHT22;28604;51.204;22.552;2023-02-14T12:10:28;7.10;85.70
42965;DHT22;28604;51.204;22.552;2023-02-14T12:15:50;7.10;85.50
42965;DHT22;28604;51.204;22.552;2023-02-14T12:23:52;7.20;85.50
42965;DHT22;28604;51.204;22.552;2023-02-14T12:26:40;7.20;85.40
42965;DHT22;28604;51.204;22.552;2023-02-14T12:29:24;7.20;85.50
42965;DHT22;28604;51.204;22.552;2023-02-14T12:32:00;7.20;85.10
42965;DHT22;28604;51.204;22.552;2023-02-14T12:34:26;7.20;85.20
42965;DHT22;28604;51.204;22.552;2023-02-14T12:37:23;7.20;85.40
42965;DHT22;28604;51.204;22.552;2023-02-14T12:40:41;7.20;85.60
42965;DHT22;28604;51.204;22.552;2023-02-14T12:48:45;7.10;85.40
42965;DHT22;28604;51.204;22.552;2023-02-14T12:51:47;7.00;85.50
42965;DHT22;28604;51.204;22.552;2023-02-14T12:57:17;7.10;85.80
42965;DHT22;28604;51.204;22.552;2023-02-14T13:00:10;7.00;85.80
42965;DHT22;28604;51.204;22.552;2023-02-14T13:05:33;6.90;85.50
42965;DHT22;28604;51.204;22.552;2023-02-14T13:08:12;7.00;85.90
42965;DHT22;28604;51.204;22.552;2023-02-14T13:11:00;7.00;85.70
42965;DHT22;28604;51.204;22.552;2023-02-14T13:14:02;7.00;86.00
42965;DHT22;28604;51.204;22.552;2023-02-14T13:16:35;6.90;86.00
42965;DHT22;28604;51.204;22.552;2023-02-14T13:21:37;6.90;86.00
42965;DHT22;28604;51.204;22.552;2023-02-14T13:24:15;6.90;85.90
42965;DHT22;28604;51.204;22.552;2023-02-14T13:26:45;6.90;85.80
42965;DHT22;28604;51.204;22.552;2023-02-14T13:29:16;6.90;86.00
42965;DHT22;28604;51.204;22.552;2023-02-14T13:31:44;6.90;86.10
42965;DHT22;28604;51.204;22.552;2023-02-14T13:34:39;6.90;86.60
42965;DHT22;28604;51.204;22.552;2023-02-14T13:37:09;6.90;86.30
42965;DHT22;28604;51.204;22.552;2023-02-14T13:39:42;6.90;86.20
42965;DHT22;28604;51.204;22.552;2023-02-14T13:42:09;6.90;86.10
42965;DHT22;28604;51.204;22.552;2023-02-14T13:44:56;6.90;86.20
42965;DHT22;28604;51.204;22.552;2023-02-14T13:47:23;6.90;86.30
42965;DHT22;28604;51.204;22.552;2023-02-14T13:49:54;6.80;86.40
42965;DHT22;28604;51.204;22.552;2023-02-14T13:52:48;6.90;86.40
42965;DHT22;28604;51.204;22.552;2023-02-14T13:55:20;6.80;86.30
42965;DHT22;28604;51.204;22.552;2023-02-14T13:58:14;6.80;86.50
42965;DHT22;28604;51.204;22.552;2023-02-14T14:00:43;6.80;86.50
42965;DHT22;28604;51.204;22.552;2023-02-14T14:06:12;6.70;86.80
42965;DHT22;28604;51.204;22.552;2023-02-14T14:08:49;6.80;86.90
42965;DHT22;28604;51.204;22.552;2023-02-14T14:21:40;6.80;86.70
42965;DHT22;28604;51.204;22.552;2023-02-14T14:26:46;6.80;87.20
42965;DHT22;28604;51.204;22.552;2023-02-14T14:29:32;6.70;86.80
42965;DHT22;28604;51.204;22.552;2023-02-14T14:32:07;6.70;86.80
42965;DHT22;28604;51.204;22.552;2023-02-14T14:34:34;6.70;86.70
42965;DHT22;28604;51.204;22.552;2023-02-14T14:37:05;6.60;86.70
42965;DHT22;28604;51.204;22.552;2023-02-14T14:39:33;6.60;86.80
42965;DHT22;28604;51.204;22.552;2023-02-14T14:42:13;6.70;86.80
42965;DHT22;28604;51.204;22.552;2023-02-14T14:44:51;6.60;86.90
42965;DHT22;28604;51.204;22.552;2023-02-14T14:47:22;6.60;86.80
42965;DHT22;28604;51.204;22.552;2023-02-14T14:49:51;6.60;86.90
42965;DHT22;28604;51.204;22.552;2023-02-14T14:52:29;6.50;86.80
42965;DHT22;28604;51.204;22.552;2023-02-14T14:54:57;6.60;86.90
42965;DHT22;28604;51.204;22.552;2023-02-14T14:57:24;6.60;86.90
42965;DHT22;28604;51.204;22.552;2023-02-14T15:00:06;6.50;87.00
42965;DHT22;28604;51.204;22.552;2023-02-14T15:02:34;6.50;86.90
42965;DHT22;28604;51.204;22.552;2023-02-14T15:05:22;6.50;86.80
42965;DHT22;28604;51.204;22.552;2023-02-14T15:07:48;6.50;86.80
42965;DHT22;28604;51.204;22.552;2023-02-14T15:10:26;6.40;86.90
42965;DHT22;28604;51.204;22.552;2023-02-14T15:12:56;6.40;86.70
42965;DHT22;28604;51.204;22.552;2023-02-14T15:15:46;6.40;86.70
42965;DHT22;28604;51.204;22.552;2023-02-14T15:18:14;6.40;87.20
42965;DHT22;28604;51.204;22.552;2023-02-14T15:20:41;6.30;87.10
42965;DHT22;28604;51.204;22.552;2023-02-14T15:23:18;6.20;87.10
42965;DHT22;28604;51.204;22.552;2023-02-14T15:25:47;6.20;86.90
42965;DHT22;28604;51.204;22.552;2023-02-14T15:31:02;6.20;87.10
42965;DHT22;28604;51.204;22.552;2023-02-14T15:33:30;6.20;87.20
42965;DHT22;28604;51.204;22.552;2023-02-14T15:36:03;6.20;86.90
42965;DHT22;28604;51.204;22.552;2023-02-14T15:38:39;6.20;86.80
42965;DHT22;28604;51.204;22.552;2023-02-14T15:41:06;6.10;86.70
42965;DHT22;28604;51.204;22.552;2023-02-14T15:43:35;6.10;87.10
42965;DHT22;28604;51.204;22.552;2023-02-14T15:48:40;6.00;86.90
42965;DHT22;28604;51.204;22.552;2023-02-14T15:51:24;6.00;86.90
42965;DHT22;28604;51.204;22.552;2023-02-14T15:53:56;6.00;87.50
42965;DHT22;28604;51.204;22.552;2023-02-14T15:56:26;5.90;87.10
42965;DHT22;28604;51.204;22.552;2023-02-14T15:59:06;5.90;87.30
42965;DHT22;28604;51.204;22.552;2023-02-14T16:01:37;5.90;87.20
42965;DHT22;28604;51.204;22.552;2023-02-14T16:04:04;5.80;87.20
42965;DHT22;28604;51.204;22.552;2023-02-14T16:09:22;5.80;87.10
42965;DHT22;28604;51.204;22.552;2023-02-14T16:11:49;5.80;87.00
42965;DHT22;28604;51.204;22.552;2023-02-14T16:17:00;5.70;87.60
42965;DHT22;28604;51.204;22.552;2023-02-14T16:19:33;5.70;87.60
42965;DHT22;28604;51.204;22.552;2023-02-14T16:21:59;5.70;87.60
42965;DHT22;28604;51.204;22.552;2023-02-14T16:24:25;5.60;87.70
42965;DHT22;28604;51.204;22.552;2023-02-14T16:26:51;5.60;88.00
42965;DHT22;28604;51.204;22.552;2023-02-14T16:29:18;5.60;87.90
42965;DHT22;28604;51.204;22.552;2023-02-14T16:31:51;5.50;88.40
42965;DHT22;28604;51.204;22.552;2023-02-14T16:34:18;5.50;87.80
42965;DHT22;28604;51.204;22.552;2023-02-14T16:36:44;5.50;87.90
42965;DHT22;28604;51.204;22.552;2023-02-14T16:39:14;5.50;87.90
42965;DHT22;28604;51.204;22.552;2023-02-14T16:41:43;5.40;87.60
42965;DHT22;28604;51.204;22.552;2023-02-14T16:44:17;5.40;88.20
42965;DHT22;28604;51.204;22.552;2023-02-14T16:46:44;5.40;87.80
42965;DHT22;28604;51.204;22.552;2023-02-14T16:49:12;5.40;87.60
42965;DHT22;28604;51.204;22.552;2023-02-14T16:51:41;5.40;87.80
42965;DHT22;28604;51.204;22.552;2023-02-14T16:54:17;5.30;88.00
42965;DHT22;28604;51.204;22.552;2023-02-14T16:56:49;5.30;88.00
42965;DHT22;28604;51.204;22.552;2023-02-14T16:59:16;5.20;88.50
42965;DHT22;28604;51.204;22.552;2023-02-14T17:01:42;5.20;88.10
42965;DHT22;28604;51.204;22.552;2023-02-14T17:04:08;5.20;88.10
42965;DHT22;28604;51.204;22.552;2023-02-14T17:06:37;5.20;88.70
42965;DHT22;28604;51.204;22.552;2023-02-14T17:09:05;5.20;88.20
42965;DHT22;28604;51.204;22.552;2023-02-14T17:11:36;5.20;88.30
42965;DHT22;28604;51.204;22.552;2023-02-14T17:14:04;5.20;88.40
42965;DHT22;28604;51.204;22.552;2023-02-14T17:16:30;5.20;88.00
42965;DHT22;28604;51.204;22.552;2023-02-14T17:18:57;5.10;88.20
42965;DHT22;28604;51.204;22.552;2023-02-14T17:21:23;5.20;88.20
42965;DHT22;28604;51.204;22.552;2023-02-14T17:23:49;5.10;88.10
42965;DHT22;28604;51.204;22.552;2023-02-14T17:26:15;5.10;88.40
42965;DHT22;28604;51.204;22.552;2023-02-14T17:28:43;5.10;88.40
42965;DHT22;28604;51.204;22.552;2023-02-14T17:31:11;5.10;88.60
42965;DHT22;28604;51.204;22.552;2023-02-14T17:33:37;5.10;88.40
42965;DHT22;28604;51.204;22.552;2023-02-14T17:36:09;5.10;88.00
42965;DHT22;28604;51.204;22.552;2023-02-14T17:38:36;5.10;88.30
42965;DHT22;28604;51.204;22.552;2023-02-14T17:41:17;5.10;88.40
42965;DHT22;28604;51.204;22.552;2023-02-14T17:43:44;5.10;88.40
42965;DHT22;28604;51.204;22.552;2023-02-14T17:46:10;5.00;89.00
42965;DHT22;28604;51.204;22.552;2023-02-14T17:48:39;5.10;88.70
42965;DHT22;28604;51.204;22.552;2023-02-14T17:51:07;5.00;88.70
42965;DHT22;28604;51.204;22.552;2023-02-14T17:53:34;5.10;88.30
42965;DHT22;28604;51.204;22.552;2023-02-14T17:56:12;5.00;88.40
42965;DHT22;28604;51.204;22.552;2023-02-14T17:58:38;5.00;88.10
42965;DHT22;28604;51.204;22.552;2023-02-14T18:01:09;5.00;88.30
42965;DHT22;28604;51.204;22.552;2023-02-14T18:03:37;5.00;88.70